createdAt,value
2023-02-08T00:01:25.726Z,103429.56
2023-02-08T00:03:55.373Z,103433.88
2023-02-08T00:06:23.682Z,103429.47
2023-02-08T00:08:51.888Z,103417.13
2023-02-08T00:11:20.255Z,103425.66
2023-02-08T00:13:48.541Z,103426.34
2023-02-08T00:16:18.552Z,103424.41
2023-02-08T00:18:46.775Z,103424.41
2023-02-08T00:21:18.656Z,103418.22
2023-02-08T00:23:47.596Z,103412.13
2023-02-08T00:26:16.091Z,103413.75
2023-02-08T00:28:44.341Z,103407.56
2023-02-08T00:31:12.610Z,103412.72
2023-02-08T00:33:40.950Z,103410.00
2023-02-08T00:36:10.221Z,103400.53
2023-02-08T00:38:39.895Z,103402.22
2023-02-08T00:41:08.084Z,103397.81
2023-02-08T00:43:36.254Z,103390.69
2023-02-08T00:46:04.893Z,103384.56
2023-02-08T00:48:33.387Z,103383.72
2023-02-08T00:51:03.659Z,103381.88
2023-02-08T00:53:32.008Z,103368.66
2023-02-08T00:56:01.404Z,103374.75
2023-02-08T00:58:29.697Z,103364.19
2023-02-08T01:00:58.217Z,103357.91
2023-02-08T01:03:26.424Z,103350.88
2023-02-08T01:05:54.626Z,103356.13
2023-02-08T01:08:22.933Z,103352.56
2023-02-08T01:10:51.146Z,103342.03
2023-02-08T01:13:20.736Z,103344.66
2023-02-08T01:15:48.990Z,103346.47
2023-02-08T01:18:17.172Z,103336.91
2023-02-08T01:20:45.419Z,103343.94
2023-02-08T01:23:13.550Z,103335.22
2023-02-08T01:25:42.616Z,103339.63
2023-02-08T01:28:10.814Z,103333.53
2023-02-08T01:30:40.703Z,103316.81
2023-02-08T01:33:09.100Z,103311.56
2023-02-08T01:35:37.493Z,103311.69
2023-02-08T01:38:05.669Z,103305.47
2023-02-08T01:40:33.845Z,103301.91
2023-02-08T01:43:02.016Z,103308.00
2023-02-08T01:45:33.417Z,103292.84
2023-02-08T01:48:12.171Z,103292.94
2023-02-08T01:50:46.400Z,103287.69
2023-02-08T01:53:15.155Z,103279.91
2023-02-08T01:55:48.487Z,103268.47
2023-02-08T01:58:19.241Z,103273.72
2023-02-08T02:00:48.203Z,103267.50
2023-02-08T02:03:19.839Z,103263.00
2023-02-08T02:05:51.312Z,103260.31
2023-02-08T02:08:19.159Z,103248.97
2023-02-08T02:10:50.643Z,103246.59
2023-02-08T02:13:19.862Z,103253.91
2023-02-08T02:15:48.186Z,103251.56
2023-02-08T02:18:23.773Z,103240.53
2023-02-08T02:21:06.224Z,103239.97
2023-02-08T02:24:07.194Z,103241.34
2023-02-08T02:27:04.018Z,103228.47
2023-02-08T02:30:13.901Z,103225.38
2023-02-08T02:32:56.766Z,103219.59
2023-02-08T02:35:33.665Z,103211.09
2023-02-08T02:38:11.581Z,103207.78
2023-02-08T02:40:52.794Z,103206.16
2023-02-08T02:43:41.675Z,103202.97
2023-02-08T02:46:19.777Z,103196.13
2023-02-08T02:49:00.178Z,103193.69
2023-02-08T02:51:35.441Z,103190.38
2023-02-08T02:54:08.631Z,103195.72
2023-02-08T02:56:40.601Z,103200.13
2023-02-08T02:59:11.998Z,103191.50
2023-02-08T03:01:40.031Z,103187.09
2023-02-08T03:04:18.221Z,103182.84
2023-02-08T03:07:02.514Z,103175.16
2023-02-08T03:09:59.004Z,103174.25
2023-02-08T03:12:41.090Z,103168.22
2023-02-08T03:15:22.384Z,103167.53
2023-02-08T03:18:05.770Z,103167.91
2023-02-08T03:20:40.843Z,103164.69
2023-02-08T03:23:15.435Z,103156.97
2023-02-08T03:25:52.049Z,103157.19
2023-02-08T03:28:26.268Z,103149.47
2023-02-08T03:31:04.866Z,103154.63
2023-02-08T03:33:38.502Z,103157.25
2023-02-08T03:36:15.976Z,103149.63
2023-02-08T03:38:47.030Z,103141.97
2023-02-08T03:41:19.398Z,103150.75
2023-02-08T03:43:52.671Z,103141.28
2023-02-08T03:46:26.852Z,103135.34
2023-02-08T03:49:00.113Z,103127.59
2023-02-08T03:51:32.239Z,103139.84
2023-02-08T03:54:04.037Z,103140.84
2023-02-08T03:56:38.902Z,103143.47
2023-02-08T03:59:12.510Z,103152.25
2023-02-08T04:01:45.457Z,103158.44
2023-02-08T04:04:16.673Z,103142.97
2023-02-08T04:06:46.402Z,103150.97
2023-02-08T04:09:15.096Z,103150.97
2023-02-08T04:11:43.252Z,103152.84
2023-02-08T04:14:11.427Z,103156.31
2023-02-08T04:16:39.646Z,103156.41
2023-02-08T04:19:07.804Z,103153.09
2023-02-08T04:21:35.890Z,103144.47
2023-02-08T04:24:05.900Z,103159.28
2023-02-08T04:26:33.981Z,103164.44
2023-02-08T04:29:02.604Z,103168.81
2023-02-08T04:31:30.882Z,103171.53
2023-02-08T04:33:59.039Z,103167.28
2023-02-08T04:36:27.302Z,103178.72
2023-02-08T04:38:55.526Z,103192.91
2023-02-08T04:41:25.088Z,103198.22
2023-02-08T04:43:53.268Z,103190.44
2023-02-08T04:46:21.536Z,103197.19
2023-02-08T04:48:49.793Z,103206.69
2023-02-08T04:51:18.046Z,103201.34
2023-02-08T04:53:46.161Z,103193.50
2023-02-08T04:56:14.814Z,103177.19
2023-02-08T04:58:44.610Z,103169.16
2023-02-08T05:01:12.848Z,103161.38
2023-02-08T05:03:41.090Z,103151.66
2023-02-08T05:06:09.242Z,103145.50
2023-02-08T05:08:37.482Z,103141.09
2023-02-08T05:11:05.803Z,103120.13
2023-02-08T05:13:34.155Z,103116.59
2023-02-08T05:16:03.850Z,103106.19
2023-02-08T05:18:31.985Z,103101.91
2023-02-08T05:21:02.218Z,103096.66
2023-02-08T05:23:30.653Z,103087.19
2023-02-08T05:25:58.922Z,103085.50
2023-02-08T05:28:27.253Z,103068.09
2023-02-08T05:30:55.491Z,103057.63
2023-02-08T05:33:25.170Z,103062.84
2023-02-08T05:35:53.294Z,103062.84
2023-02-08T05:38:21.447Z,103066.22
2023-02-08T05:40:50.397Z,103072.31
2023-02-08T05:43:18.549Z,103071.47
2023-02-08T05:45:46.725Z,103078.63
2023-02-08T05:48:15.025Z,103070.13
2023-02-08T05:50:44.583Z,103069.44
2023-02-08T05:53:12.810Z,103066.28
2023-02-08T05:55:41.123Z,103069.25
2023-02-08T05:58:09.193Z,103070.28
2023-02-08T06:00:37.365Z,103071.28
2023-02-08T06:03:05.715Z,103074.97
2023-02-08T06:05:33.977Z,103097.84
2023-02-08T06:08:03.482Z,103082.25
2023-02-08T06:10:31.865Z,103080.41
2023-02-08T06:13:00.790Z,103042.81
2023-02-08T06:15:29.518Z,103052.69
2023-02-08T06:17:57.808Z,103044.91
2023-02-08T06:20:25.895Z,103036.22
2023-02-08T06:22:54.020Z,103041.38
2023-02-08T06:25:23.654Z,103070.09
2023-02-08T06:27:51.820Z,103080.41
2023-02-08T06:30:20.394Z,103067.38
2023-02-08T06:32:48.696Z,103063.91
2023-02-08T06:35:17.110Z,103056.06
2023-02-08T06:37:45.425Z,103047.59
2023-02-08T06:40:13.655Z,103055.47
2023-02-08T06:42:43.222Z,103050.97
2023-02-08T06:45:13.675Z,103062.38
2023-02-08T06:47:42.069Z,103067.63
2023-02-08T06:50:10.937Z,103079.16
2023-02-08T06:52:39.760Z,103088.81
2023-02-08T06:55:08.431Z,103069.47
2023-02-08T06:57:36.939Z,103070.22
2023-02-08T07:00:07.784Z,103068.41
2023-02-08T07:02:36.052Z,103053.53
2023-02-08T07:05:04.306Z,103067.47
2023-02-08T07:07:37.073Z,103048.97
2023-02-08T07:10:05.622Z,103054.03
2023-02-08T07:12:34.810Z,103054.88
2023-02-08T07:15:02.955Z,103054.88
2023-02-08T07:17:32.659Z,103051.41
2023-02-08T07:20:00.743Z,103050.47
2023-02-08T07:22:29.076Z,103044.41
2023-02-08T07:24:57.241Z,103044.41
2023-02-08T07:27:26.120Z,103041.88
2023-02-08T07:29:54.311Z,103036.56
2023-02-08T07:32:22.433Z,103047.81
2023-02-08T07:34:51.985Z,103041.72
2023-02-08T07:37:20.210Z,103039.00
2023-02-08T07:39:48.291Z,103039.84
2023-02-08T07:42:16.523Z,103043.41
2023-02-08T07:44:44.743Z,103037.38
2023-02-08T07:47:12.934Z,103039.94
2023-02-08T07:49:41.119Z,103030.31
2023-02-08T07:52:10.734Z,103031.25
2023-02-08T07:54:38.813Z,103025.09
2023-02-08T07:57:06.893Z,103013.00
2023-02-08T07:59:35.067Z,103026.91
2023-02-08T08:02:03.208Z,103022.56
2023-02-08T08:04:31.349Z,103034.72
2023-02-08T08:06:59.406Z,103020.78
2023-02-08T08:09:29.007Z,103007.69
2023-02-08T08:11:57.214Z,103010.31
2023-02-08T08:14:25.342Z,103015.59
2023-02-08T08:16:53.480Z,103005.97
2023-02-08T08:19:21.633Z,103004.22
2023-02-08T08:21:49.906Z,103000.69
2023-02-08T08:24:17.948Z,102997.97
2023-02-08T08:26:47.520Z,102979.63
2023-02-08T08:29:15.649Z,102973.47
2023-02-08T08:31:44.988Z,102959.63
2023-02-08T08:34:13.312Z,102967.03
2023-02-08T08:36:41.524Z,102949.13
2023-02-08T08:39:09.590Z,102941.59
2023-02-08T08:41:39.928Z,102952.66
2023-02-08T08:44:09.515Z,102942.84
2023-02-08T08:46:37.808Z,102936.34
2023-02-08T08:49:06.087Z,102931.66
2023-02-08T08:51:35.638Z,102930.03
2023-02-08T08:54:04.328Z,102936.59
2023-02-08T08:56:32.684Z,102946.91
2023-02-08T08:59:00.995Z,102937.72
2023-02-08T09:01:32.962Z,102947.94
2023-02-08T09:04:01.805Z,102945.97
2023-02-08T09:06:30.397Z,102947.50
2023-02-08T09:08:58.640Z,102954.31
2023-02-08T09:11:27.287Z,102955.91
2023-02-08T09:13:56.396Z,102961.06
2023-02-08T09:16:25.769Z,102949.47
2023-02-08T09:18:55.316Z,102949.34
2023-02-08T09:21:26.057Z,102954.53
2023-02-08T09:23:54.163Z,102948.06
2023-02-08T09:26:22.879Z,102952.94
2023-02-08T09:28:51.183Z,102933.56
2023-02-08T09:31:23.726Z,102948.25
2023-02-08T09:33:53.857Z,102931.28
2023-02-08T09:36:25.300Z,102924.84
2023-02-08T09:39:00.791Z,102924.47
2023-02-08T09:41:46.955Z,102916.97
2023-02-08T09:44:22.349Z,102915.72
2023-02-08T09:47:00.806Z,102902.13
2023-02-08T09:49:35.190Z,102900.69
2023-02-08T09:52:08.486Z,102880.03
2023-02-08T09:54:40.815Z,102879.56
2023-02-08T09:57:17.920Z,102882.63
2023-02-08T09:59:53.684Z,102876.03
2023-02-08T10:02:27.545Z,102881.72
2023-02-08T10:05:02.982Z,102873.66
2023-02-08T10:07:33.613Z,102862.19
2023-02-08T10:10:04.135Z,102865.00
2023-02-08T10:12:42.617Z,102858.63
2023-02-08T10:15:17.298Z,102854.03
2023-02-08T10:18:14.223Z,102865.28
2023-02-08T10:20:54.467Z,102842.28
2023-02-08T10:23:49.874Z,102832.28
2023-02-08T10:26:27.598Z,102832.22
2023-02-08T10:29:10.098Z,102828.31
2023-02-08T10:31:55.444Z,102837.56
2023-02-08T10:34:37.205Z,102828.53
2023-02-08T10:37:11.929Z,102831.16
2023-02-08T10:39:41.979Z,102832.13
2023-02-08T10:42:15.582Z,102828.44
2023-02-08T10:44:56.097Z,102834.53
2023-02-08T10:47:44.212Z,102811.72
2023-02-08T10:50:22.035Z,102812.66
2023-02-08T10:52:50.335Z,102818.66
2023-02-08T10:55:22.591Z,102817.41
2023-02-08T10:57:54.242Z,102813.50
2023-02-08T11:00:25.267Z,102831.72
2023-02-08T11:02:53.964Z,102831.41
2023-02-08T11:05:32.403Z,102818.13
2023-02-08T11:08:08.298Z,102811.81
2023-02-08T11:10:40.279Z,102825.59
2023-02-08T11:13:18.566Z,102827.78
2023-02-08T11:15:49.414Z,102822.97
2023-02-08T11:18:23.088Z,102814.63
2023-02-08T11:20:53.736Z,102809.78
2023-02-08T11:23:27.988Z,102811.16
2023-02-08T11:26:16.267Z,102811.78
2023-02-08T11:28:44.896Z,102807.88
2023-02-08T11:31:19.424Z,102810.88
2023-02-08T11:34:09.346Z,102800.66
2023-02-08T11:36:48.085Z,102800.13
2023-02-08T11:39:24.257Z,102788.38
2023-02-08T11:41:56.656Z,102775.97
2023-02-08T11:44:29.132Z,102768.06
2023-02-08T11:47:00.662Z,102772.25
2023-02-08T11:49:31.212Z,102761.63
2023-02-08T11:51:59.328Z,102760.00
2023-02-08T11:54:36.442Z,102749.84
2023-02-08T11:57:13.917Z,102761.72
2023-02-08T11:59:42.655Z,102749.06
2023-02-08T12:02:30.613Z,102750.50
2023-02-08T12:05:00.113Z,102748.00
2023-02-08T12:07:39.290Z,102746.94
2023-02-08T12:10:26.377Z,102744.81
2023-02-08T12:13:08.005Z,102746.06
2023-02-08T12:15:57.150Z,102742.22
2023-02-08T12:18:44.800Z,102732.19
2023-02-08T12:21:18.680Z,102713.25
2023-02-08T12:23:52.222Z,102715.78
2023-02-08T12:26:26.944Z,102712.06
2023-02-08T12:29:13.511Z,102705.84
2023-02-08T12:32:04.305Z,102696.97
2023-02-08T12:34:51.176Z,102700.56
2023-02-08T12:37:49.910Z,102690.16
2023-02-08T12:40:52.717Z,102676.00
2023-02-08T12:43:37.934Z,102667.28
2023-02-08T12:46:23.013Z,102663.81
2023-02-08T12:49:06.808Z,102665.47
2023-02-08T12:51:44.151Z,102667.28
2023-02-08T12:54:15.521Z,102667.13
2023-02-08T12:57:00.331Z,102644.25
2023-02-08T12:59:37.280Z,102642.94
2023-02-08T13:02:18.019Z,102643.53
2023-02-08T13:04:50.906Z,102637.06
2023-02-08T13:07:24.944Z,102630.81
2023-02-08T13:10:02.650Z,102625.31
2023-02-08T13:12:33.906Z,102616.22
2023-02-08T13:15:11.905Z,102618.94
2023-02-08T13:17:52.683Z,102632.25
2023-02-08T13:20:34.867Z,102609.13
2023-02-08T13:23:09.192Z,102603.03
2023-02-08T13:25:39.078Z,102611.03
2023-02-08T13:28:10.204Z,102602.56
2023-02-08T13:30:40.743Z,102592.84
2023-02-08T13:33:19.586Z,102580.88
2023-02-08T13:35:51.284Z,102586.38
2023-02-08T13:38:27.202Z,102575.22
2023-02-08T13:41:08.167Z,102577.41
2023-02-08T13:43:41.424Z,102573.09
2023-02-08T13:46:10.181Z,102566.28
2023-02-08T13:48:56.780Z,102559.44
2023-02-08T13:51:55.941Z,102550.00
2023-02-08T13:54:24.255Z,102544.84
2023-02-08T13:56:53.949Z,102542.94
2023-02-08T13:59:33.851Z,102538.59
2023-02-08T14:02:30.795Z,102525.69
2023-02-08T14:05:44.847Z,102520.88
2023-02-08T14:08:24.182Z,102525.41
2023-02-08T14:11:05.322Z,102518.38
2023-02-08T14:13:36.713Z,102499.81
2023-02-08T14:16:23.199Z,102507.72
2023-02-08T14:18:53.770Z,102499.06
2023-02-08T14:21:33.009Z,102503.63
2023-02-08T14:24:04.118Z,102496.69
2023-02-08T14:26:32.958Z,102494.06
2023-02-08T14:29:04.226Z,102497.66
2023-02-08T14:31:44.027Z,102489.88
2023-02-08T14:34:34.986Z,102494.53
2023-02-08T14:37:07.771Z,102465.69
2023-02-08T14:39:37.503Z,102461.25
2023-02-08T14:42:08.961Z,102461.25
2023-02-08T14:44:54.522Z,102457.66
2023-02-08T14:47:55.329Z,102462.91
2023-02-08T14:50:27.747Z,102475.41
2023-02-08T14:53:04.553Z,102478.16
2023-02-08T14:55:38.046Z,102472.06
2023-02-08T14:58:08.691Z,102468.47
2023-02-08T15:00:39.213Z,102461.25
2023-02-08T15:03:14.417Z,102464.16
2023-02-08T15:05:47.702Z,102449.19
2023-02-08T15:08:22.476Z,102445.91
2023-02-08T15:10:50.678Z,102447.00
2023-02-08T15:13:22.179Z,102436.81
2023-02-08T15:15:53.437Z,102426.56
2023-02-08T15:18:24.766Z,102427.53
2023-02-08T15:21:03.572Z,102433.03
2023-02-08T15:23:33.581Z,102437.47
2023-02-08T15:26:04.786Z,102425.34
2023-02-08T15:28:36.684Z,102430.75
2023-02-08T15:31:09.476Z,102435.19
2023-02-08T15:33:42.577Z,102437.81
2023-02-08T15:36:23.574Z,102442.50
2023-02-08T15:38:53.239Z,102450.53
2023-02-08T15:41:27.540Z,102443.69
2023-02-08T15:44:04.338Z,102434.25
2023-02-08T15:46:33.387Z,102439.63
2023-02-08T15:49:02.183Z,102444.19
2023-02-08T15:51:31.110Z,102441.69
2023-02-08T15:54:01.197Z,102456.03
2023-02-08T15:56:37.846Z,102451.97
2023-02-08T15:59:09.052Z,102466.19
2023-02-08T16:01:37.323Z,102454.97
2023-02-08T16:04:12.652Z,102455.19
2023-02-08T16:06:46.597Z,102454.50
2023-02-08T16:09:20.399Z,102450.56
2023-02-08T16:11:50.483Z,102456.88
2023-02-08T16:14:24.762Z,102457.09
2023-02-08T16:16:57.336Z,102456.28
2023-02-08T16:19:28.844Z,102458.44
2023-02-08T16:21:58.410Z,102450.78
2023-02-08T16:24:29.065Z,102461.66
2023-02-08T16:27:05.136Z,102446.94
2023-02-08T16:29:35.297Z,102451.59
2023-02-08T16:32:12.581Z,102442.16
2023-02-08T16:34:41.990Z,102448.59
2023-02-08T16:37:27.782Z,102470.00
2023-02-08T16:40:00.436Z,102459.72
2023-02-08T16:42:32.065Z,102458.03
2023-02-08T16:45:03.886Z,102467.72
2023-02-08T16:47:38.278Z,102467.13
2023-02-08T16:50:07.451Z,102461.00
2023-02-08T16:52:35.866Z,102468.19
2023-02-08T16:55:06.763Z,102478.94
2023-02-08T16:57:43.070Z,102474.03
2023-02-08T17:00:16.535Z,102472.56
2023-02-08T17:02:44.844Z,102483.94
2023-02-08T17:05:13.147Z,102485.72
2023-02-08T17:07:41.450Z,102487.75
2023-02-08T17:10:22.007Z,102502.81
2023-02-08T17:12:50.196Z,102496.09
2023-02-08T17:15:19.516Z,102503.28
2023-02-08T17:17:47.773Z,102491.06
2023-02-08T17:20:21.688Z,102496.44
2023-02-08T17:22:50.177Z,102513.38
2023-02-08T17:25:21.060Z,102517.81
2023-02-08T17:27:54.339Z,102520.66
2023-02-08T17:30:25.959Z,102516.59
2023-02-08T17:32:56.324Z,102505.22
2023-02-08T17:35:25.378Z,102505.34
2023-02-08T17:37:54.330Z,102519.44
2023-02-08T17:40:27.139Z,102525.53
2023-02-08T17:42:55.401Z,102519.56
2023-02-08T17:45:23.506Z,102513.69
2023-02-08T17:47:51.767Z,102516.09
2023-02-08T17:50:20.359Z,102511.88
2023-02-08T17:52:49.275Z,102519.78
2023-02-08T17:55:19.301Z,102511.06
2023-02-08T17:57:49.442Z,102506.63
2023-02-08T18:00:21.199Z,102499.78
2023-02-08T18:02:51.563Z,102498.88
2023-02-08T18:05:22.081Z,102503.88
2023-02-08T18:07:50.953Z,102496.25
2023-02-08T18:10:19.584Z,102501.72
2023-02-08T18:12:49.150Z,102504.34
2023-02-08T18:15:20.748Z,102481.53
2023-02-08T18:17:50.417Z,102500.25
2023-02-08T18:20:18.999Z,102502.75
2023-02-08T18:22:47.215Z,102494.78
2023-02-08T18:25:16.176Z,102485.72
2023-02-08T18:27:44.511Z,102480.69
2023-02-08T18:30:15.984Z,102485.22
2023-02-08T18:32:43.967Z,102485.31
2023-02-08T18:35:13.743Z,102489.41
2023-02-08T18:37:41.860Z,102490.38
2023-02-08T18:40:11.174Z,102477.09
2023-02-08T18:42:39.509Z,102472.69
2023-02-08T18:45:08.158Z,102469.97
2023-02-08T18:47:39.440Z,102477.84
2023-02-08T18:50:09.294Z,102460.38
2023-02-08T18:52:37.657Z,102466.25
2023-02-08T18:55:06.388Z,102465.41
2023-02-08T18:57:38.994Z,102462.66
2023-02-08T19:00:08.250Z,102455.66
2023-02-08T19:02:39.511Z,102476.53
2023-02-08T19:05:08.371Z,102469.38
2023-02-08T19:07:38.899Z,102471.16
2023-02-08T19:10:08.839Z,102465.69
2023-02-08T19:12:37.445Z,102464.53
2023-02-08T19:15:06.121Z,102468.06
2023-02-08T19:17:34.688Z,102459.25
2023-02-08T19:20:04.797Z,102468.06
2023-02-08T19:22:32.876Z,102468.69
2023-02-08T19:25:01.108Z,102468.59
2023-02-08T19:27:29.609Z,102470.16
2023-02-08T19:29:57.910Z,102468.13
2023-02-08T19:32:26.190Z,102454.16
2023-02-08T19:34:54.434Z,102465.25
2023-02-08T19:37:24.135Z,102465.16
2023-02-08T19:39:52.446Z,102470.28
2023-02-08T19:42:21.037Z,102469.34
2023-02-08T19:44:50.044Z,102481.78
2023-02-08T19:47:18.593Z,102476.28
2023-02-08T19:49:46.743Z,102477.97
2023-02-08T19:52:20.001Z,102483.59
2023-02-08T19:54:49.913Z,102479.28
2023-02-08T19:57:18.151Z,102483.72
2023-02-08T19:59:47.559Z,102483.84
2023-02-08T20:02:18.043Z,102477.50
2023-02-08T20:04:46.404Z,102472.34
2023-02-08T20:07:14.958Z,102476.88
2023-02-08T20:09:43.341Z,102490.75
2023-02-08T20:12:12.873Z,102492.31
2023-02-08T20:14:41.016Z,102489.94
2023-02-08T20:17:09.285Z,102494.22
2023-02-08T20:19:38.306Z,102477.72
2023-02-08T20:22:06.658Z,102497.91
2023-02-08T20:24:34.845Z,102496.25
2023-02-08T20:27:03.058Z,102487.75
2023-02-08T20:29:33.365Z,102489.53
2023-02-08T20:32:01.667Z,102499.84
2023-02-08T20:34:30.019Z,102490.50
2023-02-08T20:37:07.316Z,102505.44
2023-02-08T20:39:37.705Z,102499.84
2023-02-08T20:42:06.930Z,102518.84
2023-02-08T20:44:36.765Z,102563.31
2023-02-08T20:47:05.215Z,102570.38
2023-02-08T20:49:33.545Z,102588.28
2023-02-08T20:52:01.699Z,102594.94
2023-02-08T20:54:30.254Z,102600.53
2023-02-08T20:56:58.559Z,102610.78
2023-02-08T20:59:26.669Z,102620.03
2023-02-08T21:01:56.401Z,102611.56
2023-02-08T21:04:24.763Z,102619.00
2023-02-08T21:06:53.728Z,102621.13
2023-02-08T21:09:22.023Z,102621.25
2023-02-08T21:11:51.854Z,102631.97
2023-02-08T21:14:23.405Z,102633.97
2023-02-08T21:16:54.025Z,102636.06
2023-02-08T21:19:24.825Z,102640.50
2023-02-08T21:21:53.899Z,102639.78
2023-02-08T21:24:24.067Z,102642.28
2023-02-08T21:26:52.495Z,102640.41
2023-02-08T21:29:21.360Z,102640.28
2023-02-08T21:31:52.540Z,102644.59
2023-02-08T21:34:21.588Z,102651.00
2023-02-08T21:36:51.450Z,102651.13
2023-02-08T21:39:19.849Z,102652.09
2023-02-08T21:41:48.392Z,102654.69
2023-02-08T21:44:16.718Z,102659.22
2023-02-08T21:46:44.982Z,102652.28
2023-02-08T21:49:30.826Z,102654.78
2023-02-08T21:52:17.850Z,102661.31
2023-02-08T21:54:46.374Z,102664.16
2023-02-08T21:57:19.239Z,102668.47
2023-02-08T21:59:48.647Z,102679.91
2023-02-08T22:02:21.800Z,102689.50
2023-02-08T22:05:07.852Z,102690.22
2023-02-08T22:07:44.983Z,102689.66
2023-02-08T22:10:14.478Z,102695.59
2023-02-08T22:12:42.707Z,102694.75
2023-02-08T22:15:13.101Z,102698.09
2023-02-08T22:17:41.261Z,102693.78
2023-02-08T22:20:10.482Z,102696.63
2023-02-08T22:22:39.150Z,102702.72
2023-02-08T22:25:09.289Z,102701.00
2023-02-08T22:27:39.247Z,102695.66
2023-02-08T22:30:08.475Z,102706.94
2023-02-08T22:32:36.774Z,102703.34
2023-02-08T22:35:04.861Z,102707.56
2023-02-08T22:37:33.972Z,102708.81
2023-02-08T22:40:02.244Z,102709.94
2023-02-08T22:42:31.747Z,102710.88
2023-02-08T22:45:00.611Z,102711.09
2023-02-08T22:47:28.902Z,102718.22
2023-02-08T22:49:58.623Z,102714.69
2023-02-08T22:52:27.433Z,102719.94
2023-02-08T22:54:56.329Z,102713.09
2023-02-08T22:57:24.553Z,102713.22
2023-02-08T22:59:54.388Z,102712.44
2023-02-08T23:02:23.486Z,102720.31
2023-02-08T23:04:51.751Z,102720.56
2023-02-08T23:07:20.131Z,102731.97
2023-02-08T23:09:48.383Z,102734.53
2023-02-08T23:12:16.608Z,102736.31
2023-02-08T23:14:44.947Z,102734.53
2023-02-08T23:17:14.435Z,102739.84
2023-02-08T23:19:42.738Z,102742.41
2023-02-08T23:22:10.844Z,102747.66
2023-02-08T23:24:39.095Z,102753.75
2023-02-08T23:27:07.251Z,102760.88
2023-02-08T23:29:35.490Z,102758.16
2023-02-08T23:32:03.797Z,102763.41
2023-02-08T23:34:36.918Z,102765.28
2023-02-08T23:37:05.064Z,102767.38
2023-02-08T23:39:34.481Z,102763.19
2023-02-08T23:42:02.790Z,102761.91
2023-02-08T23:44:30.894Z,102762.09
2023-02-08T23:46:59.208Z,102760.00
2023-02-08T23:49:27.427Z,102773.53
2023-02-08T23:51:57.053Z,102775.88
2023-02-08T23:54:25.104Z,102775.25
2023-02-08T23:56:53.256Z,102774.59
2023-02-08T23:59:21.572Z,102769.00
